View Mont, North Carolina
Current Conditions -  °F | °C
As of 1:53 AM on Saturday 20 Dec 2014 (Local Time) from KHKY Reporting Station
Broken Clouds Broken Clouds  
Wind Chill: 40°   Ceiling: 12000
Heat Index: 40°   Visibility: 10mi
Dew Point: 30°   Wind: 3mph
Humidity: 68%   Direction: 10°N
Pressure: 30.17"   Gusts: NA
Location:  35.7628°N, 81.3219°W
Report Text: KHKY 200653Z AUTO 01003KT 10SM FEW050 BKN120 04/M01 A3017 RMK AO2 SLP207 T00441011
Loading
Personal Weather Stations






























Interactive Weather Map New forecast layout! Learn more

10-Day Weather Forecast

Advertisements
Track Severe Weather on mobile